sensor_id;sensor_type;location;lat;lon;timestamp;temperature;humidity
69387;SHT31;56575;48.942;8.404;2022-11-15T00:01:49;9.28;93.54
69387;SHT31;56575;48.942;8.404;2022-11-15T00:04:14;9.28;93.42
69387;SHT31;56575;48.942;8.404;2022-11-15T00:06:40;9.31;93.36
69387;SHT31;56575;48.942;8.404;2022-11-15T00:09:05;9.34;93.23
69387;SHT31;56575;48.942;8.404;2022-11-15T00:11:31;9.34;92.94
69387;SHT31;56575;48.942;8.404;2022-11-15T00:13:57;9.37;92.76
69387;SHT31;56575;48.942;8.404;2022-11-15T00:16:23;9.38;92.86
69387;SHT31;56575;48.942;8.404;2022-11-15T00:18:48;9.41;92.64
69387;SHT31;56575;48.942;8.404;2022-11-15T00:21:14;9.40;92.69
69387;SHT31;56575;48.942;8.404;2022-11-15T00:23:40;9.40;92.64
69387;SHT31;56575;48.942;8.404;2022-11-15T00:26:06;9.41;92.57
69387;SHT31;56575;48.942;8.404;2022-11-15T00:28:32;9.40;92.47
69387;SHT31;56575;48.942;8.404;2022-11-15T00:31:02;9.37;92.58
69387;SHT31;56575;48.942;8.404;2022-11-15T00:33:28;9.34;92.48
69387;SHT31;56575;48.942;8.404;2022-11-15T00:35:53;9.32;92.56
69387;SHT31;56575;48.942;8.404;2022-11-15T00:38:19;9.32;92.87
69387;SHT31;56575;48.942;8.404;2022-11-15T00:40:44;9.31;92.93
69387;SHT31;56575;48.942;8.404;2022-11-15T00:43:09;9.34;93.03
69387;SHT31;56575;48.942;8.404;2022-11-15T00:45:35;9.32;93.03
69387;SHT31;56575;48.942;8.404;2022-11-15T00:48:00;9.31;92.98
69387;SHT31;56575;48.942;8.404;2022-11-15T00:50:25;9.34;92.93
69387;SHT31;56575;48.942;8.404;2022-11-15T00:52:51;9.37;92.86
69387;SHT31;56575;48.942;8.404;2022-11-15T00:55:17;9.34;92.86
69387;SHT31;56575;48.942;8.404;2022-11-15T00:57:43;9.38;92.98
69387;SHT31;56575;48.942;8.404;2022-11-15T01:00:09;9.35;92.64
69387;SHT31;56575;48.942;8.404;2022-11-15T01:02:34;9.34;92.69
69387;SHT31;56575;48.942;8.404;2022-11-15T01:05:00;9.34;92.77
69387;SHT31;56575;48.942;8.404;2022-11-15T01:07:25;9.32;92.78
69387;SHT31;56575;48.942;8.404;2022-11-15T01:09:51;9.37;92.81
69387;SHT31;56575;48.942;8.404;2022-11-15T01:12:16;9.38;92.85
69387;SHT31;56575;48.942;8.404;2022-11-15T01:14:41;9.40;92.74
69387;SHT31;56575;48.942;8.404;2022-11-15T01:17:07;9.38;92.82
69387;SHT31;56575;48.942;8.404;2022-11-15T01:19:32;9.40;92.67
69387;SHT31;56575;48.942;8.404;2022-11-15T01:21:58;9.40;92.67
69387;SHT31;56575;48.942;8.404;2022-11-15T01:24:23;9.41;92.89
69387;SHT31;56575;48.942;8.404;2022-11-15T01:26:48;9.40;92.94
69387;SHT31;56575;48.942;8.404;2022-11-15T01:29:14;9.37;92.89
69387;SHT31;56575;48.942;8.404;2022-11-15T01:31:39;9.40;92.67
69387;SHT31;56575;48.942;8.404;2022-11-15T01:34:04;9.41;92.86
69387;SHT31;56575;48.942;8.404;2022-11-15T01:36:30;9.40;92.99
69387;SHT31;56575;48.942;8.404;2022-11-15T01:38:57;9.42;92.93
69387;SHT31;56575;48.942;8.404;2022-11-15T01:41:26;9.44;92.94
69387;SHT31;56575;48.942;8.404;2022-11-15T01:43:54;9.44;92.79
69387;SHT31;56575;48.942;8.404;2022-11-15T01:46:35;9.45;92.89
69387;SHT31;56575;48.942;8.404;2022-11-15T01:49:05;9.44;92.80
69387;SHT31;56575;48.942;8.404;2022-11-15T01:51:35;9.47;92.73
69387;SHT31;56575;48.942;8.404;2022-11-15T01:54:08;9.47;92.89
69387;SHT31;56575;48.942;8.404;2022-11-15T01:56:40;9.49;92.89
69387;SHT31;56575;48.942;8.404;2022-11-15T01:59:08;9.51;92.69
69387;SHT31;56575;48.942;8.404;2022-11-15T02:01:34;9.51;92.61
69387;SHT31;56575;48.942;8.404;2022-11-15T02:06:36;9.52;92.46
69387;SHT31;56575;48.942;8.404;2022-11-15T02:09:02;9.54;92.59
69387;SHT31;56575;48.942;8.404;2022-11-15T02:11:28;9.57;92.34
69387;SHT31;56575;48.942;8.404;2022-11-15T02:13:54;9.55;92.45
69387;SHT31;56575;48.942;8.404;2022-11-15T02:17:02;9.54;92.49
69387;SHT31;56575;48.942;8.404;2022-11-15T02:25:01;9.55;92.71
69387;SHT31;56575;48.942;8.404;2022-11-15T02:33:12;9.55;92.63
69387;SHT31;56575;48.942;8.404;2022-11-15T02:35:50;9.55;92.35
69387;SHT31;56575;48.942;8.404;2022-11-15T02:41:08;9.54;92.24
69387;SHT31;56575;48.942;8.404;2022-11-15T02:43:43;9.58;92.28
69387;SHT31;56575;48.942;8.404;2022-11-15T02:46:33;9.54;92.43
69387;SHT31;56575;48.942;8.404;2022-11-15T02:49:18;9.57;92.33
69387;SHT31;56575;48.942;8.404;2022-11-15T02:51:47;9.59;92.43
69387;SHT31;56575;48.942;8.404;2022-11-15T02:54:22;9.61;92.31
69387;SHT31;56575;48.942;8.404;2022-11-15T02:56:49;9.63;92.45
69387;SHT31;56575;48.942;8.404;2022-11-15T03:04:56;9.69;92.20
69387;SHT31;56575;48.942;8.404;2022-11-15T03:10:21;9.76;92.10
69387;SHT31;56575;48.942;8.404;2022-11-15T03:12:56;9.78;91.80
69387;SHT31;56575;48.942;8.404;2022-11-15T03:15:28;9.82;91.68
69387;SHT31;56575;48.942;8.404;2022-11-15T03:18:15;9.82;91.71
69387;SHT31;56575;48.942;8.404;2022-11-15T03:20:44;9.86;91.45
69387;SHT31;56575;48.942;8.404;2022-11-15T03:23:10;9.92;91.00
69387;SHT31;56575;48.942;8.404;2022-11-15T03:25:45;9.96;90.59
69387;SHT31;56575;48.942;8.404;2022-11-15T03:28:17;10.00;90.66
69387;SHT31;56575;48.942;8.404;2022-11-15T03:30:43;10.02;90.31
69387;SHT31;56575;48.942;8.404;2022-11-15T03:33:11;10.07;90.21
69387;SHT31;56575;48.942;8.404;2022-11-15T03:35:40;10.06;90.25
69387;SHT31;56575;48.942;8.404;2022-11-15T03:38:23;10.06;90.36
69387;SHT31;56575;48.942;8.404;2022-11-15T03:40:55;10.07;90.37
69387;SHT31;56575;48.942;8.404;2022-11-15T03:43:44;10.09;89.99
69387;SHT31;56575;48.942;8.404;2022-11-15T03:46:16;10.04;90.08
69387;SHT31;56575;48.942;8.404;2022-11-15T03:48:49;10.07;90.23
69387;SHT31;56575;48.942;8.404;2022-11-15T03:51:16;10.06;90.26
69387;SHT31;56575;48.942;8.404;2022-11-15T03:53:41;10.04;90.44
69387;SHT31;56575;48.942;8.404;2022-11-15T03:56:07;10.03;90.53
69387;SHT31;56575;48.942;8.404;2022-11-15T03:58:32;9.97;90.48
69387;SHT31;56575;48.942;8.404;2022-11-15T04:00:57;9.97;90.66
69387;SHT31;56575;48.942;8.404;2022-11-15T04:03:24;9.96;90.72
69387;SHT31;56575;48.942;8.404;2022-11-15T04:05:50;9.92;91.04
69387;SHT31;56575;48.942;8.404;2022-11-15T04:08:15;9.90;91.29
69387;SHT31;56575;48.942;8.404;2022-11-15T04:10:40;9.87;91.22
69387;SHT31;56575;48.942;8.404;2022-11-15T04:13:06;9.85;91.11
69387;SHT31;56575;48.942;8.404;2022-11-15T04:15:31;9.87;90.88
69387;SHT31;56575;48.942;8.404;2022-11-15T04:17:57;9.87;90.63
69387;SHT31;56575;48.942;8.404;2022-11-15T04:20:28;9.95;90.38
69387;SHT31;56575;48.942;8.404;2022-11-15T04:23:20;10.00;90.46
69387;SHT31;56575;48.942;8.404;2022-11-15T04:26:13;9.95;90.42
69387;SHT31;56575;48.942;8.404;2022-11-15T04:28:40;9.89;90.95
69387;SHT31;56575;48.942;8.404;2022-11-15T04:31:25;9.83;91.04
69387;SHT31;56575;48.942;8.404;2022-11-15T04:33:51;9.82;91.25
69387;SHT31;56575;48.942;8.404;2022-11-15T04:36:17;9.78;91.72
69387;SHT31;56575;48.942;8.404;2022-11-15T04:39:00;9.76;91.68
69387;SHT31;56575;48.942;8.404;2022-11-15T04:41:26;9.75;92.00
69387;SHT31;56575;48.942;8.404;2022-11-15T04:43:51;9.74;92.03
69387;SHT31;56575;48.942;8.404;2022-11-15T04:46:17;9.75;92.11
69387;SHT31;56575;48.942;8.404;2022-11-15T04:48:42;9.74;92.15
69387;SHT31;56575;48.942;8.404;2022-11-15T04:51:08;9.76;91.77
69387;SHT31;56575;48.942;8.404;2022-11-15T04:53:33;9.72;91.74
69387;SHT31;56575;48.942;8.404;2022-11-15T04:55:58;9.74;91.78
69387;SHT31;56575;48.942;8.404;2022-11-15T04:58:24;9.67;92.06
69387;SHT31;56575;48.942;8.404;2022-11-15T05:00:49;9.68;91.82
69387;SHT31;56575;48.942;8.404;2022-11-15T05:03:14;9.63;92.01
69387;SHT31;56575;48.942;8.404;2022-11-15T05:05:58;9.62;92.19
69387;SHT31;56575;48.942;8.404;2022-11-15T05:08:24;9.61;92.05
69387;SHT31;56575;48.942;8.404;2022-11-15T05:10:49;9.62;92.32
69387;SHT31;56575;48.942;8.404;2022-11-15T05:13:15;9.61;92.27
69387;SHT31;56575;48.942;8.404;2022-11-15T05:15:40;9.62;92.22
69387;SHT31;56575;48.942;8.404;2022-11-15T05:18:06;9.62;92.21
69387;SHT31;56575;48.942;8.404;2022-11-15T05:20:31;9.65;92.16
69387;SHT31;56575;48.942;8.404;2022-11-15T05:22:56;9.68;92.11
69387;SHT31;56575;48.942;8.404;2022-11-15T05:25:22;9.69;91.94
69387;SHT31;56575;48.942;8.404;2022-11-15T05:27:48;9.69;91.95
69387;SHT31;56575;48.942;8.404;2022-11-15T05:30:14;9.68;92.01
69387;SHT31;56575;48.942;8.404;2022-11-15T05:32:40;9.68;92.06
69387;SHT31;56575;48.942;8.404;2022-11-15T05:35:07;9.65;92.29
69387;SHT31;56575;48.942;8.404;2022-11-15T05:37:33;9.61;91.90
69387;SHT31;56575;48.942;8.404;2022-11-15T05:39:59;9.62;92.05
69387;SHT31;56575;48.942;8.404;2022-11-15T05:42:24;9.59;92.13
69387;SHT31;56575;48.942;8.404;2022-11-15T05:44:50;9.58;92.09
69387;SHT31;56575;48.942;8.404;2022-11-15T05:47:21;9.57;92.10
69387;SHT31;56575;48.942;8.404;2022-11-15T05:49:48;9.55;92.19
69387;SHT31;56575;48.942;8.404;2022-11-15T05:52:17;9.48;92.25
69387;SHT31;56575;48.942;8.404;2022-11-15T05:54:43;9.47;92.31
69387;SHT31;56575;48.942;8.404;2022-11-15T05:57:09;9.44;91.90
69387;SHT31;56575;48.942;8.404;2022-11-15T05:59:35;9.42;92.08
69387;SHT31;56575;48.942;8.404;2022-11-15T06:02:00;9.40;92.21
69387;SHT31;56575;48.942;8.404;2022-11-15T06:04:26;9.37;92.11
69387;SHT31;56575;48.942;8.404;2022-11-15T06:06:51;9.37;91.96
69387;SHT31;56575;48.942;8.404;2022-11-15T06:09:17;9.35;92.26
69387;SHT31;56575;48.942;8.404;2022-11-15T06:11:42;9.37;92.26
69387;SHT31;56575;48.942;8.404;2022-11-15T06:14:07;9.38;92.26
69387;SHT31;56575;48.942;8.404;2022-11-15T06:16:33;9.38;92.38
69387;SHT31;56575;48.942;8.404;2022-11-15T06:18:58;9.41;92.11
69387;SHT31;56575;48.942;8.404;2022-11-15T06:21:24;9.41;92.12
69387;SHT31;56575;48.942;8.404;2022-11-15T06:23:49;9.41;92.10
69387;SHT31;56575;48.942;8.404;2022-11-15T06:26:14;9.42;92.26
69387;SHT31;56575;48.942;8.404;2022-11-15T06:28:40;9.42;92.20
69387;SHT31;56575;48.942;8.404;2022-11-15T06:31:10;9.44;92.23
69387;SHT31;56575;48.942;8.404;2022-11-15T06:33:39;9.45;92.49
69387;SHT31;56575;48.942;8.404;2022-11-15T06:36:10;9.44;92.28
69387;SHT31;56575;48.942;8.404;2022-11-15T06:38:38;9.48;92.21
69387;SHT31;56575;48.942;8.404;2022-11-15T06:41:05;9.45;92.39
69387;SHT31;56575;48.942;8.404;2022-11-15T06:43:31;9.47;92.55
69387;SHT31;56575;48.942;8.404;2022-11-15T06:46:00;9.47;92.45
69387;SHT31;56575;48.942;8.404;2022-11-15T06:48:27;9.48;92.77
69387;SHT31;56575;48.942;8.404;2022-11-15T06:50:54;9.49;92.55
69387;SHT31;56575;48.942;8.404;2022-11-15T06:53:20;9.51;92.32
69387;SHT31;56575;48.942;8.404;2022-11-15T06:55:45;9.52;92.41
69387;SHT31;56575;48.942;8.404;2022-11-15T06:58:11;9.55;92.47
69387;SHT31;56575;48.942;8.404;2022-11-15T07:00:36;9.59;92.56
69387;SHT31;56575;48.942;8.404;2022-11-15T07:03:02;9.61;92.20
69387;SHT31;56575;48.942;8.404;2022-11-15T07:05:27;9.67;92.36
69387;SHT31;56575;48.942;8.404;2022-11-15T07:07:54;9.69;92.25
69387;SHT31;56575;48.942;8.404;2022-11-15T07:10:21;9.75;92.10
69387;SHT31;56575;48.942;8.404;2022-11-15T07:12:48;9.78;91.86
69387;SHT31;56575;48.942;8.404;2022-11-15T07:15:15;9.85;91.59
69387;SHT31;56575;48.942;8.404;2022-11-15T07:17:40;9.90;91.26
69387;SHT31;56575;48.942;8.404;2022-11-15T07:20:06;9.92;91.24
69387;SHT31;56575;48.942;8.404;2022-11-15T07:22:31;9.96;91.02
69387;SHT31;56575;48.942;8.404;2022-11-15T07:24:57;9.99;91.27
69387;SHT31;56575;48.942;8.404;2022-11-15T07:27:22;10.02;90.71
69387;SHT31;56575;48.942;8.404;2022-11-15T07:29:47;10.09;90.73
69387;SHT31;56575;48.942;8.404;2022-11-15T07:32:13;10.09;90.43
69387;SHT31;56575;48.942;8.404;2022-11-15T07:34:38;10.12;90.44
69387;SHT31;56575;48.942;8.404;2022-11-15T07:37:04;10.14;90.72
69387;SHT31;56575;48.942;8.404;2022-11-15T07:39:29;10.17;90.64
69387;SHT31;56575;48.942;8.404;2022-11-15T07:41:54;10.21;90.83
69387;SHT31;56575;48.942;8.404;2022-11-15T07:44:40;10.27;91.38
69387;SHT31;56575;48.942;8.404;2022-11-15T07:47:05;10.31;91.71
69387;SHT31;56575;48.942;8.404;2022-11-15T07:49:30;10.40;90.48
69387;SHT31;56575;48.942;8.404;2022-11-15T07:51:56;10.38;90.83
69387;SHT31;56575;48.942;8.404;2022-11-15T07:54:21;10.41;90.32
69387;SHT31;56575;48.942;8.404;2022-11-15T07:56:46;10.42;90.71
69387;SHT31;56575;48.942;8.404;2022-11-15T07:59:12;10.40;90.35
69387;SHT31;56575;48.942;8.404;2022-11-15T08:01:37;10.42;90.80
69387;SHT31;56575;48.942;8.404;2022-11-15T08:04:02;10.42;90.77
69387;SHT31;56575;48.942;8.404;2022-11-15T08:06:28;10.44;90.48
69387;SHT31;56575;48.942;8.404;2022-11-15T08:08:53;10.47;90.86
69387;SHT31;56575;48.942;8.404;2022-11-15T08:11:19;10.47;90.86
69387;SHT31;56575;48.942;8.404;2022-11-15T08:13:44;10.49;90.07
69387;SHT31;56575;48.942;8.404;2022-11-15T08:16:09;10.52;90.05
69387;SHT31;56575;48.942;8.404;2022-11-15T08:18:37;10.54;90.12
69387;SHT31;56575;48.942;8.404;2022-11-15T08:21:03;10.57;90.07
69387;SHT31;56575;48.942;8.404;2022-11-15T08:23:28;10.65;89.60
69387;SHT31;56575;48.942;8.404;2022-11-15T08:26:02;10.69;89.09
69387;SHT31;56575;48.942;8.404;2022-11-15T08:28:29;10.76;89.29
69387;SHT31;56575;48.942;8.404;2022-11-15T08:30:54;10.85;89.22
69387;SHT31;56575;48.942;8.404;2022-11-15T08:33:19;10.85;89.19
69387;SHT31;56575;48.942;8.404;2022-11-15T08:35:45;10.91;88.85
69387;SHT31;56575;48.942;8.404;2022-11-15T08:38:11;10.96;88.24
69387;SHT31;56575;48.942;8.404;2022-11-15T08:40:36;11.00;88.01
69387;SHT31;56575;48.942;8.404;2022-11-15T08:43:02;11.09;88.42
69387;SHT31;56575;48.942;8.404;2022-11-15T08:45:29;11.13;87.97
69387;SHT31;56575;48.942;8.404;2022-11-15T08:47:54;11.20;87.00
69387;SHT31;56575;48.942;8.404;2022-11-15T08:50:20;11.28;87.44
69387;SHT31;56575;48.942;8.404;2022-11-15T08:52:45;11.30;87.80
69387;SHT31;56575;48.942;8.404;2022-11-15T08:55:11;11.34;87.69
69387;SHT31;56575;48.942;8.404;2022-11-15T08:57:37;11.35;87.68
69387;SHT31;56575;48.942;8.404;2022-11-15T09:00:03;11.38;88.03
69387;SHT31;56575;48.942;8.404;2022-11-15T09:02:29;11.40;88.07
69387;SHT31;56575;48.942;8.404;2022-11-15T09:04:54;11.40;88.27
69387;SHT31;56575;48.942;8.404;2022-11-15T09:07:19;11.42;88.48
69387;SHT31;56575;48.942;8.404;2022-11-15T09:09:45;11.44;88.84
69387;SHT31;56575;48.942;8.404;2022-11-15T09:12:10;11.50;88.48
69387;SHT31;56575;48.942;8.404;2022-11-15T09:14:36;11.51;88.05
69387;SHT31;56575;48.942;8.404;2022-11-15T09:17:02;11.54;88.63
69387;SHT31;56575;48.942;8.404;2022-11-15T09:19:27;11.59;88.35
69387;SHT31;56575;48.942;8.404;2022-11-15T09:21:53;11.62;88.53
69387;SHT31;56575;48.942;8.404;2022-11-15T09:24:18;11.62;88.35
69387;SHT31;56575;48.942;8.404;2022-11-15T09:26:44;11.64;87.60
69387;SHT31;56575;48.942;8.404;2022-11-15T09:29:09;11.68;87.39
69387;SHT31;56575;48.942;8.404;2022-11-15T09:31:35;11.74;87.81
69387;SHT31;56575;48.942;8.404;2022-11-15T09:34:00;11.75;87.66
69387;SHT31;56575;48.942;8.404;2022-11-15T09:36:25;11.81;87.72
69387;SHT31;56575;48.942;8.404;2022-11-15T09:38:51;11.82;87.43
69387;SHT31;56575;48.942;8.404;2022-11-15T09:44:30;11.82;86.62
69387;SHT31;56575;48.942;8.404;2022-11-15T09:47:40;11.82;86.49
69387;SHT31;56575;48.942;8.404;2022-11-15T09:49:45;11.90;87.15
69387;SHT31;56575;48.942;8.404;2022-11-15T09:52:11;11.90;87.29
69387;SHT31;56575;48.942;8.404;2022-11-15T09:54:38;11.93;87.59
69387;SHT31;56575;48.942;8.404;2022-11-15T09:57:14;11.90;87.37
69387;SHT31;56575;48.942;8.404;2022-11-15T10:00:09;11.90;87.02
69387;SHT31;56575;48.942;8.404;2022-11-15T10:05:12;11.87;87.12
69387;SHT31;56575;48.942;8.404;2022-11-15T10:08:01;11.90;86.82
69387;SHT31;56575;48.942;8.404;2022-11-15T10:10:46;11.87;87.03
69387;SHT31;56575;48.942;8.404;2022-11-15T10:13:36;11.87;87.73
69387;SHT31;56575;48.942;8.404;2022-11-15T10:19:34;11.92;87.88
69387;SHT31;56575;48.942;8.404;2022-11-15T10:22:19;11.90;87.99
69387;SHT31;56575;48.942;8.404;2022-11-15T10:24:47;11.90;88.54
69387;SHT31;56575;48.942;8.404;2022-11-15T10:27:18;11.90;88.81
69387;SHT31;56575;48.942;8.404;2022-11-15T10:29:48;11.92;89.10
69387;SHT31;56575;48.942;8.404;2022-11-15T10:32:16;11.87;89.27
69387;SHT31;56575;48.942;8.404;2022-11-15T10:34:42;11.85;90.34
69387;SHT31;56575;48.942;8.404;2022-11-15T10:37:07;11.83;91.31
69387;SHT31;56575;48.942;8.404;2022-11-15T10:39:33;11.81;90.77
69387;SHT31;56575;48.942;8.404;2022-11-15T10:42:18;11.79;90.73
69387;SHT31;56575;48.942;8.404;2022-11-15T10:44:50;11.75;91.10
69387;SHT31;56575;48.942;8.404;2022-11-15T10:50:03;11.74;90.85
69387;SHT31;56575;48.942;8.404;2022-11-15T10:52:30;11.76;89.58
69387;SHT31;56575;48.942;8.404;2022-11-15T10:55:04;11.78;90.70
69387;SHT31;56575;48.942;8.404;2022-11-15T10:57:35;11.85;91.36
69387;SHT31;56575;48.942;8.404;2022-11-15T11:00:07;11.93;89.70
69387;SHT31;56575;48.942;8.404;2022-11-15T11:02:43;12.07;90.11
69387;SHT31;56575;48.942;8.404;2022-11-15T11:05:31;12.20;90.00
69387;SHT31;56575;48.942;8.404;2022-11-15T11:08:04;12.33;89.26
69387;SHT31;56575;48.942;8.404;2022-11-15T11:10:30;12.41;89.03
69387;SHT31;56575;48.942;8.404;2022-11-15T11:13:12;12.45;89.58
69387;SHT31;56575;48.942;8.404;2022-11-15T11:15:38;12.45;89.88
69387;SHT31;56575;48.942;8.404;2022-11-15T11:18:36;12.44;89.36
69387;SHT31;56575;48.942;8.404;2022-11-15T11:21:09;12.47;89.02
69387;SHT31;56575;48.942;8.404;2022-11-15T11:23:53;12.48;88.50
69387;SHT31;56575;48.942;8.404;2022-11-15T11:32:40;12.61;87.95
69387;SHT31;56575;48.942;8.404;2022-11-15T11:35:20;12.65;87.91
69387;SHT31;56575;48.942;8.404;2022-11-15T11:40:39;12.74;89.21
69387;SHT31;56575;48.942;8.404;2022-11-15T11:48:45;12.89;89.95
69387;SHT31;56575;48.942;8.404;2022-11-15T11:51:28;12.84;89.69
69387;SHT31;56575;48.942;8.404;2022-11-15T11:54:04;12.86;89.94
69387;SHT31;56575;48.942;8.404;2022-11-15T11:56:36;12.84;89.26
69387;SHT31;56575;48.942;8.404;2022-11-15T12:01:50;12.86;90.41
69387;SHT31;56575;48.942;8.404;2022-11-15T12:04:20;12.85;88.75
69387;SHT31;56575;48.942;8.404;2022-11-15T12:06:54;12.85;88.94
69387;SHT31;56575;48.942;8.404;2022-11-15T12:09:41;12.92;88.86
69387;SHT31;56575;48.942;8.404;2022-11-15T12:12:18;12.86;88.57
69387;SHT31;56575;48.942;8.404;2022-11-15T12:14:52;12.89;89.19
69387;SHT31;56575;48.942;8.404;2022-11-15T12:17:23;12.89;89.36
69387;SHT31;56575;48.942;8.404;2022-11-15T12:19:48;12.92;89.61
69387;SHT31;56575;48.942;8.404;2022-11-15T12:24:58;13.07;89.19
69387;SHT31;56575;48.942;8.404;2022-11-15T12:30:04;13.21;88.74
69387;SHT31;56575;48.942;8.404;2022-11-15T12:32:36;13.33;88.85
69387;SHT31;56575;48.942;8.404;2022-11-15T12:35:05;13.46;88.60
69387;SHT31;56575;48.942;8.404;2022-11-15T12:40:14;13.86;88.35
69387;SHT31;56575;48.942;8.404;2022-11-15T12:42:58;14.12;87.78
69387;SHT31;56575;48.942;8.404;2022-11-15T12:45:44;14.42;87.39
69387;SHT31;56575;48.942;8.404;2022-11-15T13:07:01;18.13;72.26
69387;SHT31;56575;48.942;8.404;2022-11-15T13:11:53;18.09;71.10
69387;SHT31;56575;48.942;8.404;2022-11-15T13:19:46;17.70;70.55
69387;SHT31;56575;48.942;8.404;2022-11-15T13:22:11;17.39;72.66
69387;SHT31;56575;48.942;8.404;2022-11-15T13:24:56;16.88;72.32
69387;SHT31;56575;48.942;8.404;2022-11-15T13:27:21;16.57;74.99
69387;SHT31;56575;48.942;8.404;2022-11-15T13:29:47;16.33;75.97
69387;SHT31;56575;48.942;8.404;2022-11-15T13:32:14;16.06;76.03
69387;SHT31;56575;48.942;8.404;2022-11-15T13:34:43;15.79;76.96
69387;SHT31;56575;48.942;8.404;2022-11-15T13:37:28;15.59;77.92
69387;SHT31;56575;48.942;8.404;2022-11-15T13:39:54;15.41;78.49
69387;SHT31;56575;48.942;8.404;2022-11-15T13:42:34;15.22;79.57
69387;SHT31;56575;48.942;8.404;2022-11-15T13:45:02;15.09;79.39
69387;SHT31;56575;48.942;8.404;2022-11-15T13:47:29;14.96;79.76
69387;SHT31;56575;48.942;8.404;2022-11-15T13:49:59;14.88;79.86
69387;SHT31;56575;48.942;8.404;2022-11-15T13:52:30;14.76;79.50
69387;SHT31;56575;48.942;8.404;2022-11-15T13:55:17;14.67;79.19
69387;SHT31;56575;48.942;8.404;2022-11-15T13:57:55;14.63;80.76
69387;SHT31;56575;48.942;8.404;2022-11-15T14:00:38;14.56;81.53
69387;SHT31;56575;48.942;8.404;2022-11-15T14:03:10;14.50;80.83
69387;SHT31;56575;48.942;8.404;2022-11-15T14:05:39;14.44;81.40
69387;SHT31;56575;48.942;8.404;2022-11-15T14:10:45;14.37;81.35
69387;SHT31;56575;48.942;8.404;2022-11-15T14:13:29;14.34;81.73
69387;SHT31;56575;48.942;8.404;2022-11-15T14:16:21;14.34;82.01
69387;SHT31;56575;48.942;8.404;2022-11-15T14:18:51;14.34;81.65
69387;SHT31;56575;48.942;8.404;2022-11-15T14:21:18;14.36;82.72
69387;SHT31;56575;48.942;8.404;2022-11-15T14:23:44;14.33;81.80
69387;SHT31;56575;48.942;8.404;2022-11-15T14:26:32;14.38;81.47
69387;SHT31;56575;48.942;8.404;2022-11-15T14:29:26;14.36;82.37
69387;SHT31;56575;48.942;8.404;2022-11-15T14:31:54;14.36;81.48
69387;SHT31;56575;48.942;8.404;2022-11-15T14:34:32;14.33;82.16
69387;SHT31;56575;48.942;8.404;2022-11-15T14:36:57;14.31;82.30
69387;SHT31;56575;48.942;8.404;2022-11-15T14:39:22;14.27;82.57
69387;SHT31;56575;48.942;8.404;2022-11-15T14:41:50;14.23;82.15
69387;SHT31;56575;48.942;8.404;2022-11-15T14:44:15;14.19;82.63
69387;SHT31;56575;48.942;8.404;2022-11-15T14:46:43;14.14;82.59
69387;SHT31;56575;48.942;8.404;2022-11-15T14:49:09;14.10;83.56
69387;SHT31;56575;48.942;8.404;2022-11-15T14:51:34;14.02;83.59
69387;SHT31;56575;48.942;8.404;2022-11-15T14:54:00;13.96;84.16
69387;SHT31;56575;48.942;8.404;2022-11-15T14:56:26;13.90;84.60
69387;SHT31;56575;48.942;8.404;2022-11-15T14:58:51;13.89;84.38
69387;SHT31;56575;48.942;8.404;2022-11-15T15:01:23;13.87;84.42
69387;SHT31;56575;48.942;8.404;2022-11-15T15:03:48;13.79;84.31
69387;SHT31;56575;48.942;8.404;2022-11-15T15:06:16;13.76;84.96
69387;SHT31;56575;48.942;8.404;2022-11-15T15:08:42;13.69;85.20
69387;SHT31;56575;48.942;8.404;2022-11-15T15:11:30;13.67;85.46
69387;SHT31;56575;48.942;8.404;2022-11-15T15:13:56;13.62;85.85
69387;SHT31;56575;48.942;8.404;2022-11-15T15:16:25;13.57;85.71
69387;SHT31;56575;48.942;8.404;2022-11-15T15:18:51;13.58;85.94
69387;SHT31;56575;48.942;8.404;2022-11-15T15:21:24;13.54;86.24
69387;SHT31;56575;48.942;8.404;2022-11-15T15:23:51;13.53;86.48
69387;SHT31;56575;48.942;8.404;2022-11-15T15:26:17;13.47;86.92
69387;SHT31;56575;48.942;8.404;2022-11-15T15:28:42;13.47;86.82
69387;SHT31;56575;48.942;8.404;2022-11-15T15:31:09;13.44;86.33
69387;SHT31;56575;48.942;8.404;2022-11-15T15:33:34;13.44;86.22
69387;SHT31;56575;48.942;8.404;2022-11-15T15:36:00;13.41;86.42
69387;SHT31;56575;48.942;8.404;2022-11-15T15:38:25;13.38;86.54
69387;SHT31;56575;48.942;8.404;2022-11-15T15:40:51;13.37;86.70
69387;SHT31;56575;48.942;8.404;2022-11-15T15:43:16;13.36;86.92
69387;SHT31;56575;48.942;8.404;2022-11-15T15:45:42;13.34;86.85
69387;SHT31;56575;48.942;8.404;2022-11-15T15:48:12;13.31;86.90
69387;SHT31;56575;48.942;8.404;2022-11-15T15:50:38;13.28;87.24
69387;SHT31;56575;48.942;8.404;2022-11-15T15:53:04;13.26;87.16
69387;SHT31;56575;48.942;8.404;2022-11-15T15:55:30;13.23;87.23
69387;SHT31;56575;48.942;8.404;2022-11-15T15:57:56;13.23;87.63
69387;SHT31;56575;48.942;8.404;2022-11-15T16:00:23;13.20;87.79
69387;SHT31;56575;48.942;8.404;2022-11-15T16:02:50;13.17;87.88
69387;SHT31;56575;48.942;8.404;2022-11-15T16:05:16;13.17;87.52
69387;SHT31;56575;48.942;8.404;2022-11-15T16:07:42;13.14;87.89
69387;SHT31;56575;48.942;8.404;2022-11-15T16:12:45;13.13;86.95
69387;SHT31;56575;48.942;8.404;2022-11-15T16:15:10;13.16;87.06
69387;SHT31;56575;48.942;8.404;2022-11-15T16:17:39;13.16;86.99
69387;SHT31;56575;48.942;8.404;2022-11-15T16:20:06;13.16;86.27
69387;SHT31;56575;48.942;8.404;2022-11-15T16:22:32;13.14;86.19
69387;SHT31;56575;48.942;8.404;2022-11-15T16:24:57;13.17;86.33
69387;SHT31;56575;48.942;8.404;2022-11-15T16:27:23;13.16;86.49
69387;SHT31;56575;48.942;8.404;2022-11-15T16:29:49;13.16;86.63
69387;SHT31;56575;48.942;8.404;2022-11-15T16:32:15;13.17;86.70
69387;SHT31;56575;48.942;8.404;2022-11-15T16:34:40;13.16;87.67
69387;SHT31;56575;48.942;8.404;2022-11-15T16:37:20;13.12;87.66
69387;SHT31;56575;48.942;8.404;2022-11-15T16:39:46;13.09;87.56
69387;SHT31;56575;48.942;8.404;2022-11-15T16:42:11;13.06;87.93
69387;SHT31;56575;48.942;8.404;2022-11-15T16:44:37;13.02;88.44
69387;SHT31;56575;48.942;8.404;2022-11-15T16:47:02;12.97;88.14
69387;SHT31;56575;48.942;8.404;2022-11-15T16:49:27;12.97;88.23
69387;SHT31;56575;48.942;8.404;2022-11-15T16:51:53;12.96;88.77
69387;SHT31;56575;48.942;8.404;2022-11-15T16:54:18;12.91;88.66
69387;SHT31;56575;48.942;8.404;2022-11-15T16:56:43;12.89;88.62
69387;SHT31;56575;48.942;8.404;2022-11-15T16:59:14;12.89;89.09
69387;SHT31;56575;48.942;8.404;2022-11-15T17:01:41;12.88;89.61
69387;SHT31;56575;48.942;8.404;2022-11-15T17:04:18;12.84;89.54
69387;SHT31;56575;48.942;8.404;2022-11-15T17:06:46;12.81;89.69
69387;SHT31;56575;48.942;8.404;2022-11-15T17:09:22;12.79;89.72
69387;SHT31;56575;48.942;8.404;2022-11-15T17:11:51;12.79;89.18
69387;SHT31;56575;48.942;8.404;2022-11-15T17:14:16;12.79;89.18
69387;SHT31;56575;48.942;8.404;2022-11-15T17:16:42;12.79;88.93
69387;SHT31;56575;48.942;8.404;2022-11-15T17:19:20;12.76;88.88
69387;SHT31;56575;48.942;8.404;2022-11-15T17:21:46;12.75;88.47
69387;SHT31;56575;48.942;8.404;2022-11-15T17:24:13;12.78;88.32